Time;durP1;ratioP1;P1;durP2;ratioP2;P2;SDS_P1;SDS_P2;PMS_P1;PMS_P2;Temp;Humidity;BMP_temperature;BMP_pressure;BME280_temperature;BME280_humidity;BME280_pressure;Samples;Min_cycle;Max_cycle;Signal;HPM_P1;HPM_P2
2022/09/11 00:01:21;;;;;;;0.00;0.00;;;15.40;99.90;;;;;;5017884;28;21120;-71
2022/09/11 00:03:49;;;;;;;0.00;0.00;;;15.50;99.90;;;;;;5018384;28;20445;-72
2022/09/11 00:06:20;;;;;;;0.00;0.00;;;15.60;99.90;;;;;;5018040;28;20452;-72
2022/09/11 00:08:59;;;;;;;0.00;0.00;;;15.70;99.90;;;;;;5018135;28;20530;-71
2022/09/11 00:11:31;;;;;;;0.00;0.00;;;15.70;99.90;;;;;;5018036;28;20715;-71
2022/09/11 00:13:59;;;;;;;0.00;0.00;;;15.80;99.90;;;;;;5018218;28;20967;-73
2022/09/11 00:16:29;;;;;;;0.00;0.00;;;15.90;99.90;;;;;;5017976;28;20460;-73
2022/09/11 00:18:59;;;;;;;0.00;0.00;;;15.90;99.90;;;;;;5017674;28;20467;-72
2022/09/11 00:21:28;;;;;;;0.00;0.00;;;15.90;99.90;;;;;;5017612;28;20519;-72
2022/09/11 00:23:56;;;;;;;0.00;0.00;;;15.90;99.90;;;;;;5017551;28;20533;-72
2022/09/11 00:26:24;;;;;;;0.00;0.00;;;15.90;99.90;;;;;;5017669;28;20734;-72
2022/09/11 00:28:54;;;;;;;0.00;0.00;;;15.90;99.90;;;;;;5017567;28;20630;-71
2022/09/11 00:31:23;;;;;;;0.00;0.00;;;16.00;99.90;;;;;;5018364;28;20776;-73
2022/09/11 00:33:51;;;;;;;0.00;0.00;;;16.00;99.90;;;;;;5019172;28;20521;-72
2022/09/11 00:36:21;;;;;;;0.00;0.00;;;16.00;99.90;;;;;;5018813;28;20441;-72
2022/09/11 00:38:50;;;;;;;0.00;0.00;;;15.90;99.90;;;;;;5020162;28;20436;-72
2022/09/11 00:41:20;;;;;;;0.00;0.00;;;16.00;99.90;;;;;;5021083;28;20441;-73
2022/09/11 00:44:01;;;;;;;0.00;0.00;;;16.00;99.90;;;;;;5021402;28;20464;-73
2022/09/11 00:46:37;;;;;;;0.00;0.00;;;16.00;99.90;;;;;;5021049;28;20973;-73
2022/09/11 00:49:15;;;;;;;0.00;0.00;;;16.00;99.90;;;;;;5020575;28;20649;-73
2022/09/11 00:51:47;;;;;;;0.00;0.00;;;16.00;99.90;;;;;;5021057;28;20481;-74
2022/09/11 00:54:19;;;;;;;0.00;0.00;;;16.10;99.90;;;;;;5020763;28;20960;-73
2022/09/11 00:56:49;;;;;;;0.00;0.00;;;16.10;99.90;;;;;;5021016;28;20599;-74
2022/09/11 00:59:24;;;;;;;0.00;0.00;;;16.20;99.90;;;;;;5020587;28;20727;-73
2022/09/11 01:01:51;;;;;;;0.00;0.00;;;16.20;99.90;;;;;;5021294;28;20514;-74
2022/09/11 01:04:21;;;;;;;0.00;0.00;;;16.20;99.90;;;;;;5022037;28;20444;-73
2022/09/11 01:06:52;;;;;;;0.00;0.00;;;16.20;99.90;;;;;;5022451;28;20464;-73
2022/09/11 01:09:20;;;;;;;0.00;0.00;;;16.20;99.90;;;;;;5020450;28;21001;-73
2022/09/11 01:11:55;;;;;;;0.00;0.00;;;16.20;99.90;;;;;;5020261;28;20760;-72
2022/09/11 01:14:36;;;;;;;0.00;0.00;;;16.20;99.90;;;;;;5020782;28;20452;-72
2022/09/11 01:17:18;;;;;;;0.00;0.00;;;16.20;99.90;;;;;;5020780;28;20437;-71
2022/09/11 01:20:08;;;;;;;0.00;0.00;;;16.30;99.90;;;;;;5037155;28;20533;-71
2022/09/11 01:22:55;;;;;;;0.00;0.00;;;16.20;99.90;;;;;;5031474;28;20463;-73
2022/09/11 01:25:28;;;;;;;0.00;0.00;;;16.20;99.90;;;;;;5040228;28;20440;-71
2022/09/11 01:27:59;;;;;;;0.00;0.00;;;16.20;99.90;;;;;;5040588;28;20498;-73
2022/09/11 01:30:32;;;;;;;0.00;0.00;;;16.10;99.90;;;;;;5040051;28;20882;-73
2022/09/11 01:33:16;;;;;;;0.00;0.00;;;16.10;99.90;;;;;;5040097;28;20526;-73
2022/09/11 01:35:55;;;;;;;0.00;0.00;;;16.20;99.90;;;;;;5021216;28;20748;-72
2022/09/11 01:38:32;;;;;;;0.00;0.00;;;16.20;99.90;;;;;;5020357;28;20433;-73
2022/09/11 01:41:06;;;;;;;0.00;0.00;;;16.20;99.90;;;;;;5020328;28;20440;-73
2022/09/11 01:43:39;;;;;;;0.00;0.00;;;16.20;99.90;;;;;;5020124;28;20456;-73
2022/09/11 01:46:09;;;;;;;0.00;0.00;;;16.30;99.90;;;;;;5020132;28;20476;-71
2022/09/11 01:48:41;;;;;;;0.00;0.00;;;16.30;99.90;;;;;;5020244;28;20449;-73
2022/09/11 01:51:14;;;;;;;0.00;0.00;;;16.40;99.90;;;;;;5019204;28;20651;-73
2022/09/11 01:53:45;;;;;;;0.00;0.00;;;16.40;99.90;;;;;;5019834;28;20453;-73
2022/09/11 01:56:21;;;;;;;0.00;0.00;;;16.40;99.90;;;;;;5020157;28;20714;-73
2022/09/11 01:58:56;;;;;;;0.00;0.00;;;16.40;99.90;;;;;;5019564;28;20848;-72
2022/09/11 02:01:28;;;;;;;0.00;0.00;;;16.40;99.90;;;;;;5020080;28;20436;-73
2022/09/11 02:04:03;;;;;;;0.00;0.00;;;16.40;99.90;;;;;;5019778;28;20545;-73
2022/09/11 02:06:37;;;;;;;0.00;0.00;;;16.40;99.90;;;;;;5024869;28;20509;-73
2022/09/11 02:09:09;;;;;;;0.00;0.00;;;16.40;99.90;;;;;;5039241;28;20497;-73
2022/09/11 02:11:40;;;;;;;0.00;0.00;;;16.40;99.90;;;;;;5039238;28;20475;-73
2022/09/11 02:14:16;;;;;;;0.00;0.00;;;16.40;99.90;;;;;;5038953;28;20498;-72
2022/09/11 02:19:40;;;;;;;0.00;0.00;;;16.40;99.90;;;;;;5744945;23;20493;-72
2022/09/11 02:22:08;;;;;;;0.00;0.00;;;16.40;99.90;;;;;;5019818;28;20521;-72
2022/09/11 02:24:35;;;;;;;0.00;0.00;;;16.40;99.90;;;;;;5019810;28;20457;-72
2022/09/11 02:27:07;;;;;;;0.00;0.00;;;16.40;99.90;;;;;;5019455;28;20433;-73
2022/09/11 02:29:37;;;;;;;0.00;0.00;;;16.30;99.90;;;;;;5019582;28;20518;-73
2022/09/11 02:32:06;;;;;;;0.00;0.00;;;16.30;99.90;;;;;;5018823;28;20777;-72
2022/09/11 02:34:38;;;;;;;0.00;0.00;;;16.30;99.90;;;;;;5019348;28;20863;-73
2022/09/11 02:37:15;;;;;;;0.00;0.00;;;16.30;99.90;;;;;;5019255;28;20458;-73
2022/09/11 02:40:02;;;;;;;0.00;0.00;;;16.20;99.90;;;;;;5019001;28;21150;-73
2022/09/11 02:42:41;;;;;;;0.00;0.00;;;16.20;99.90;;;;;;5019373;28;20775;-72
2022/09/11 02:45:20;;;;;;;0.00;0.00;;;16.10;99.90;;;;;;5019280;28;20518;-72
2022/09/11 02:48:00;;;;;;;0.00;0.00;;;16.00;99.90;;;;;;5019647;28;20531;-72
2022/09/11 02:50:36;;;;;;;0.00;0.00;;;16.00;99.90;;;;;;5019408;28;21075;-72
2022/09/11 02:53:10;;;;;;;0.00;0.00;;;16.00;99.90;;;;;;5019767;28;20883;-72
2022/09/11 02:55:52;;;;;;;0.00;0.00;;;15.90;99.90;;;;;;5019240;28;20481;-72
2022/09/11 02:58:25;;;;;;;0.00;0.00;;;15.90;99.90;;;;;;5019124;28;20448;-72
2022/09/11 03:00:57;;;;;;;0.00;0.00;;;15.90;99.90;;;;;;5018677;28;20465;-72
2022/09/11 03:03:25;;;;;;;0.00;0.00;;;15.90;99.90;;;;;;5018673;28;20433;-72
2022/09/11 03:05:53;;;;;;;0.00;0.00;;;16.00;99.90;;;;;;5019046;28;21018;-71
2022/09/11 03:08:21;;;;;;;0.00;0.00;;;16.00;99.90;;;;;;5019304;28;20449;-72
2022/09/11 03:10:49;;;;;;;0.00;0.00;;;16.00;99.90;;;;;;5018758;28;20466;-72
2022/09/11 03:13:17;;;;;;;0.00;0.00;;;16.10;99.90;;;;;;5018900;28;21011;-71
2022/09/11 03:15:45;;;;;;;0.00;0.00;;;16.10;99.90;;;;;;5019064;28;20727;-71
2022/09/11 03:18:14;;;;;;;0.00;0.00;;;16.10;99.90;;;;;;5018780;28;20425;-71
2022/09/11 03:20:46;;;;;;;0.00;0.00;;;16.20;99.90;;;;;;5019061;28;20606;-71
2022/09/11 03:23:14;;;;;;;0.00;0.00;;;16.20;99.90;;;;;;5018548;28;20453;-71
2022/09/11 03:25:42;;;;;;;0.00;0.00;;;16.20;99.90;;;;;;5018818;28;20950;-71
2022/09/11 03:28:10;;;;;;;0.00;0.00;;;16.20;99.90;;;;;;5019002;28;20448;-70
2022/09/11 03:30:37;;;;;;;0.00;0.00;;;16.20;99.90;;;;;;5018239;28;20527;-70
2022/09/11 03:33:05;;;;;;;0.00;0.00;;;16.20;99.90;;;;;;5019088;28;20481;-70
2022/09/11 03:35:34;;;;;;;0.00;0.00;;;16.20;99.90;;;;;;5019243;28;20457;-72
2022/09/11 03:38:02;;;;;;;0.00;0.00;;;16.20;99.90;;;;;;5019288;28;20471;-71
2022/09/11 03:40:30;;;;;;;0.00;0.00;;;16.30;99.90;;;;;;5018717;28;20559;-71
2022/09/11 03:42:58;;;;;;;0.00;0.00;;;16.20;99.90;;;;;;5015572;28;20456;-72
2022/09/11 03:45:26;;;;;;;0.00;0.00;;;16.30;99.90;;;;;;4998125;28;20465;-71
2022/09/11 03:47:54;;;;;;;0.00;0.00;;;16.30;99.90;;;;;;4998909;28;20450;-72
2022/09/11 03:50:22;;;;;;;0.00;0.00;;;16.30;99.90;;;;;;5007431;28;20469;-71
2022/09/11 03:52:51;;;;;;;0.00;0.00;;;16.40;99.90;;;;;;5018075;28;21042;-74
2022/09/11 03:55:19;;;;;;;0.00;0.00;;;16.40;99.90;;;;;;5010016;28;20492;-74
2022/09/11 03:57:47;;;;;;;0.00;0.00;;;16.40;99.90;;;;;;4998698;28;20457;-74
2022/09/11 04:00:15;;;;;;;0.00;0.00;;;16.40;99.90;;;;;;4999642;28;20482;-73
2022/09/11 04:02:42;;;;;;;0.00;0.00;;;16.40;99.90;;;;;;5018437;28;20764;-71
2022/09/11 04:05:10;;;;;;;0.00;0.00;;;16.40;99.90;;;;;;5018442;28;20943;-71
2022/09/11 04:07:38;;;;;;;0.00;0.00;;;16.40;99.90;;;;;;5018355;28;20440;-71
2022/09/11 04:10:08;;;;;;;0.00;0.00;;;16.40;99.90;;;;;;5018279;28;20621;-74
2022/09/11 04:12:36;;;;;;;0.00;0.00;;;16.40;99.90;;;;;;5018206;28;20968;-70
2022/09/11 04:15:04;;;;;;;0.00;0.00;;;16.40;99.90;;;;;;5011111;28;20449;-72
2022/09/11 04:17:32;;;;;;;0.00;0.00;;;16.40;99.90;;;;;;5002523;28;20468;-71
2022/09/11 04:19:59;;;;;;;0.00;0.00;;;16.40;99.90;;;;;;5002079;28;20475;-71
2022/09/11 04:22:28;;;;;;;0.00;0.00;;;16.30;99.90;;;;;;5002778;28;20489;-71
2022/09/11 04:24:56;;;;;;;0.00;0.00;;;16.20;99.90;;;;;;5023658;28;20545;-70
2022/09/11 04:27:26;;;;;;;0.00;0.00;;;16.20;99.90;;;;;;5025420;28;20644;-71
2022/09/11 04:29:53;;;;;;;0.00;0.00;;;16.20;99.90;;;;;;5023660;28;20529;-71
2022/09/11 04:32:21;;;;;;;0.00;0.00;;;16.10;99.90;;;;;;5023320;28;20500;-71
2022/09/11 04:34:49;;;;;;;0.00;0.00;;;16.10;99.90;;;;;;5034640;28;20477;-71
2022/09/11 04:37:18;;;;;;;0.00;0.00;;;16.00;99.90;;;;;;5034098;28;20819;-71
2022/09/11 04:39:47;;;;;;;0.00;0.00;;;16.00;99.90;;;;;;5037715;28;20534;-74
2022/09/11 04:42:16;;;;;;;0.00;0.00;;;16.00;99.90;;;;;;5031144;28;21002;-75
2022/09/11 04:44:49;;;;;;;0.00;0.00;;;16.00;99.90;;;;;;5033389;28;20473;-75
2022/09/11 04:47:17;;;;;;;0.00;0.00;;;16.00;99.90;;;;;;5034490;28;20963;-78
2022/09/11 04:49:45;;;;;;;0.00;0.00;;;16.00;99.90;;;;;;5035892;28;20472;-75
2022/09/11 04:52:14;;;;;;;0.00;0.00;;;16.00;99.90;;;;;;5029375;28;20458;-75
2022/09/11 04:54:42;;;;;;;0.00;0.00;;;16.00;99.90;;;;;;5027014;28;20485;-75
2022/09/11 04:57:09;;;;;;;0.00;0.00;;;16.10;99.90;;;;;;5030813;28;20516;-75
2022/09/11 04:59:37;;;;;;;0.00;0.00;;;16.10;99.90;;;;;;5029939;28;20472;-75
2022/09/11 05:02:06;;;;;;;0.00;0.00;;;16.10;99.90;;;;;;5028864;28;20496;-75
2022/09/11 05:04:34;;;;;;;0.00;0.00;;;16.00;99.90;;;;;;5030899;28;20432;-74
2022/09/11 05:07:02;;;;;;;0.00;0.00;;;16.10;99.90;;;;;;5032215;28;20644;-75
2022/09/11 05:09:34;;;;;;;0.00;0.00;;;16.00;99.90;;;;;;5031015;28;20871;-76
2022/09/11 05:12:03;;;;;;;0.00;0.00;;;16.10;99.90;;;;;;5029620;28;20463;-75
2022/09/11 05:14:33;;;;;;;0.00;0.00;;;16.00;99.90;;;;;;5028985;28;20690;-75
2022/09/11 05:17:01;;;;;;;0.00;0.00;;;16.00;99.90;;;;;;5030403;28;20942;-75
2022/09/11 05:19:34;;;;;;;0.00;0.00;;;16.00;99.90;;;;;;5031703;28;20691;-75
2022/09/11 05:22:03;;;;;;;0.00;0.00;;;16.00;99.90;;;;;;5033013;28;20750;-75
2022/09/11 05:24:31;;;;;;;0.00;0.00;;;16.00;99.90;;;;;;5023135;28;20445;-69
2022/09/11 05:26:58;;;;;;;0.00;0.00;;;16.00;99.90;;;;;;5020671;28;20437;-71
2022/09/11 05:29:27;;;;;;;0.00;0.00;;;16.10;99.90;;;;;;5020446;28;20899;-71
2022/09/11 05:31:59;;;;;;;0.00;0.00;;;16.10;99.90;;;;;;5020951;28;20464;-71
2022/09/11 05:34:27;;;;;;;0.00;0.00;;;16.10;99.90;;;;;;5020553;28;20691;-70
2022/09/11 05:36:57;;;;;;;0.00;0.00;;;16.10;99.90;;;;;;5020624;28;20939;-70
2022/09/11 05:39:25;;;;;;;0.00;0.00;;;16.10;99.90;;;;;;5020469;28;20996;-72
2022/09/11 05:41:54;;;;;;;0.00;0.00;;;16.20;99.90;;;;;;5007812;28;21016;-70
2022/09/11 05:44:22;;;;;;;0.00;0.00;;;16.20;99.90;;;;;;5015930;28;20441;-72
2022/09/11 05:46:49;;;;;;;0.00;0.00;;;16.20;99.90;;;;;;5014597;28;20458;-72
2022/09/11 05:49:18;;;;;;;0.00;0.00;;;16.30;99.90;;;;;;5018520;28;20536;-73
2022/09/11 05:51:45;;;;;;;0.00;0.00;;;16.40;99.90;;;;;;5012798;28;20476;-72
2022/09/11 05:54:15;;;;;;;0.00;0.00;;;16.50;99.90;;;;;;5008575;28;20560;-72
2022/09/11 05:56:42;;;;;;;0.00;0.00;;;16.60;99.90;;;;;;5011532;28;20457;-70
2022/09/11 05:59:14;;;;;;;0.00;0.00;;;16.70;99.90;;;;;;5007620;28;20475;-70
2022/09/11 06:01:42;;;;;;;0.00;0.00;;;16.80;99.90;;;;;;5008477;28;20522;-71
2022/09/11 06:04:11;;;;;;;0.00;0.00;;;16.80;99.90;;;;;;5005756;28;20443;-71
2022/09/11 06:06:39;;;;;;;0.00;0.00;;;16.90;99.90;;;;;;5004938;28;20684;-70
2022/09/11 06:09:07;;;;;;;0.00;0.00;;;16.90;99.90;;;;;;5014550;28;20530;-68
2022/09/11 06:12:11;;;;;;;0.00;0.00;;;16.90;99.90;;;;;;5029675;28;20811;-69
2022/09/11 06:14:39;;;;;;;0.00;0.00;;;16.90;99.90;;;;;;5021184;28;20877;-69
2022/09/11 06:17:07;;;;;;;0.00;0.00;;;17.00;99.90;;;;;;5019212;28;20539;-69
2022/09/11 06:19:37;;;;;;;0.00;0.00;;;17.10;99.90;;;;;;5018822;28;20491;-69
2022/09/11 06:22:05;;;;;;;0.00;0.00;;;17.10;99.90;;;;;;5018810;28;21038;-69
2022/09/11 06:24:33;;;;;;;0.00;0.00;;;17.10;99.90;;;;;;5006525;28;20451;-70
2022/09/11 06:27:00;;;;;;;0.00;0.00;;;17.00;99.90;;;;;;5017897;28;20538;-69
2022/09/11 06:29:31;;;;;;;0.00;0.00;;;16.90;99.90;;;;;;5002848;28;20758;-69
2022/09/11 06:31:59;;;;;;;0.00;0.00;;;16.80;99.90;;;;;;5000046;28;20807;-70
2022/09/11 06:34:26;;;;;;;0.00;0.00;;;16.80;99.90;;;;;;4999373;28;20854;-69
2022/09/11 06:36:54;;;;;;;0.00;0.00;;;16.70;99.90;;;;;;4999034;28;20966;-69
2022/09/11 06:39:22;;;;;;;0.00;0.00;;;16.70;99.90;;;;;;5000274;28;20471;-69
2022/09/11 06:41:52;;;;;;;0.00;0.00;;;16.70;99.90;;;;;;5018770;28;20751;-69
2022/09/11 06:44:20;;;;;;;0.00;0.00;;;16.60;99.90;;;;;;5019220;28;20596;-69
2022/09/11 06:46:49;;;;;;;0.00;0.00;;;16.60;99.90;;;;;;5019367;28;20877;-69
2022/09/11 06:49:18;;;;;;;0.00;0.00;;;16.70;99.90;;;;;;5013587;28;20481;-69
2022/09/11 06:51:46;;;;;;;0.00;0.00;;;16.90;99.90;;;;;;4999492;28;20738;-69
2022/09/11 06:54:14;;;;;;;0.00;0.00;;;17.00;99.90;;;;;;4999450;28;20474;-69
2022/09/11 06:56:44;;;;;;;0.00;0.00;;;17.10;99.90;;;;;;4999180;28;20474;-69
2022/09/11 06:59:13;;;;;;;0.00;0.00;;;17.20;99.90;;;;;;4998912;28;20478;-69
2022/09/11 07:01:42;;;;;;;0.00;0.00;;;17.20;99.90;;;;;;4998975;28;20446;-69
2022/09/11 07:04:12;;;;;;;0.00;0.00;;;17.30;99.90;;;;;;5010732;28;20470;-69
2022/09/11 07:06:43;;;;;;;0.00;0.00;;;17.40;99.90;;;;;;5018639;28;20480;-69
2022/09/11 07:09:11;;;;;;;0.00;0.00;;;17.40;99.90;;;;;;5020687;28;20531;-80
2022/09/11 07:11:42;;;;;;;0.00;0.00;;;17.40;99.90;;;;;;5000137;28;20836;-78
2022/09/11 07:14:10;;;;;;;0.00;0.00;;;17.40;99.90;;;;;;5000052;28;20469;-76
2022/09/11 07:16:38;;;;;;;0.00;0.00;;;17.40;99.90;;;;;;4999105;28;20847;-76
2022/09/11 07:19:08;;;;;;;0.00;0.00;;;17.50;99.90;;;;;;4999170;28;20620;-76
2022/09/11 07:21:37;;;;;;;0.00;0.00;;;17.60;99.90;;;;;;5020153;28;20467;-76
2022/09/11 07:24:05;;;;;;;0.00;0.00;;;17.70;99.90;;;;;;5002832;28;20459;-77
2022/09/11 07:26:35;;;;;;;0.00;0.00;;;17.80;99.90;;;;;;5007248;28;20454;-74
2022/09/11 07:29:03;;;;;;;0.00;0.00;;;17.80;99.90;;;;;;5019272;28;20484;-75
2022/09/11 07:31:33;;;;;;;0.00;0.00;;;17.80;99.90;;;;;;5019135;28;20891;-78
2022/09/11 07:34:02;;;;;;;0.00;0.00;;;17.80;99.90;;;;;;5014627;28;20457;-75
2022/09/11 07:36:31;;;;;;;0.00;0.00;;;17.80;99.90;;;;;;5013623;28;20477;-70
2022/09/11 07:39:02;;;;;;;0.00;0.00;;;17.90;99.90;;;;;;5017594;28;20474;-69
2022/09/11 07:41:33;;;;;;;0.00;0.00;;;17.90;99.90;;;;;;5020475;28;20442;-68
2022/09/11 07:44:02;;;;;;;0.00;0.00;;;18.00;99.90;;;;;;5037057;28;20449;-69
2022/09/11 07:46:31;;;;;;;0.00;0.00;;;18.20;99.90;;;;;;5038133;28;20875;-70
2022/09/11 07:49:00;;;;;;;0.00;0.00;;;18.40;99.90;;;;;;5040698;28;20462;-70
2022/09/11 07:51:28;;;;;;;0.00;0.00;;;18.40;99.90;;;;;;5042046;28;20440;-70
2022/09/11 07:53:58;;;;;;;0.00;0.00;;;18.40;99.90;;;;;;5041735;28;20450;-70
2022/09/11 07:56:28;;;;;;;0.00;0.00;;;18.30;99.90;;;;;;5042021;28;20481;-74
2022/09/11 07:58:56;;;;;;;0.00;0.00;;;18.30;99.90;;;;;;5042222;28;20500;-76
2022/09/11 08:01:28;;;;;;;0.00;0.00;;;18.20;99.90;;;;;;5041863;28;20465;-76
2022/09/11 08:03:58;;;;;;;0.00;0.00;;;18.20;99.90;;;;;;5042434;28;20442;-74
2022/09/11 08:06:27;;;;;;;0.00;0.00;;;18.20;99.90;;;;;;5046942;28;20460;-76
2022/09/11 08:08:56;;;;;;;0.00;0.00;;;18.20;99.90;;;;;;5042942;28;20468;-76
2022/09/11 08:11:27;;;;;;;0.00;0.00;;;18.10;99.90;;;;;;5042734;28;20457;-76
2022/09/11 08:13:56;;;;;;;0.00;0.00;;;18.10;99.90;;;;;;5023459;28;20465;-76
2022/09/11 08:16:26;;;;;;;0.00;0.00;;;18.00;99.90;;;;;;5023105;28;20570;-76
2022/09/11 08:18:55;;;;;;;0.00;0.00;;;18.00;99.90;;;;;;5017736;28;20506;-75
2022/09/11 08:21:25;;;;;;;0.00;0.00;;;18.00;99.90;;;;;;5015240;28;21068;-76
2022/09/11 08:23:53;;;;;;;0.00;0.00;;;18.10;99.90;;;;;;5022427;28;21002;-75
2022/09/11 08:26:22;;;;;;;0.00;0.00;;;18.20;99.90;;;;;;5022395;28;20449;-76
2022/09/11 08:28:54;;;;;;;0.00;0.00;;;18.30;99.90;;;;;;5022134;28;20555;-76
2022/09/11 08:31:25;;;;;;;0.00;0.00;;;18.30;99.90;;;;;;5022371;28;20452;-76
2022/09/11 08:33:54;;;;;;;0.00;0.00;;;18.50;99.90;;;;;;5009861;28;20441;-76
2022/09/11 08:36:22;;;;;;;0.00;0.00;;;18.60;99.90;;;;;;5002115;28;20484;-76
2022/09/11 08:38:51;;;;;;;0.00;0.00;;;18.50;99.90;;;;;;5001899;28;20472;-76
2022/09/11 08:41:28;;;;;;;0.00;0.00;;;18.50;99.90;;;;;;5001806;28;20436;-76
2022/09/11 08:44:01;;;;;;;0.00;0.00;;;18.40;99.90;;;;;;5001865;28;20442;-77
2022/09/11 08:46:35;;;;;;;0.00;0.00;;;18.30;99.90;;;;;;5001857;28;21011;-74
2022/09/11 08:49:10;;;;;;;0.00;0.00;;;18.20;99.90;;;;;;4999890;28;20463;-75
2022/09/11 08:51:38;;;;;;;0.00;0.00;;;18.10;99.90;;;;;;4999731;28;20981;-74
2022/09/11 08:54:06;;;;;;;0.00;0.00;;;18.10;99.90;;;;;;5004356;28;20442;-76
2022/09/11 08:56:36;;;;;;;0.00;0.00;;;18.20;99.90;;;;;;5019632;28;20895;-76
2022/09/11 08:59:18;;;;;;;0.00;0.00;;;18.30;99.90;;;;;;5019265;28;20475;-75
2022/09/11 09:01:54;;;;;;;0.00;0.00;;;18.50;99.90;;;;;;5020078;28;20435;-74
2022/09/11 09:04:40;;;;;;;0.00;0.00;;;18.80;99.90;;;;;;5020787;28;20448;-75
2022/09/11 09:07:16;;;;;;;0.00;0.00;;;18.80;99.90;;;;;;5021101;28;20452;-75
2022/09/11 09:09:55;;;;;;;0.00;0.00;;;18.80;99.90;;;;;;5019567;28;20745;-77
2022/09/11 09:12:35;;;;;;;0.00;0.00;;;18.80;99.90;;;;;;5013103;28;20452;-75
2022/09/11 09:15:23;;;;;;;0.00;0.00;;;18.80;99.90;;;;;;5001069;28;20847;-75
2022/09/11 09:18:00;;;;;;;0.00;0.00;;;19.10;99.90;;;;;;5000796;28;20441;-75
2022/09/11 09:20:31;;;;;;;0.00;0.00;;;19.10;99.90;;;;;;5000556;28;21035;-75
2022/09/11 09:23:03;;;;;;;0.00;0.00;;;19.30;99.90;;;;;;5000330;28;20895;-76
2022/09/11 09:25:36;;;;;;;0.00;0.00;;;19.40;99.90;;;;;;5000646;28;20637;-75
2022/09/11 09:28:08;;;;;;;0.00;0.00;;;19.40;99.90;;;;;;5001032;28;20527;-75
2022/09/11 09:30:44;;;;;;;0.00;0.00;;;19.50;99.90;;;;;;5011619;28;21095;-75
2022/09/11 09:33:26;;;;;;;0.00;0.00;;;19.40;99.90;;;;;;5001038;28;21007;-74
2022/09/11 09:35:54;;;;;;;0.00;0.00;;;19.30;99.90;;;;;;5001842;28;20485;-74
2022/09/11 09:38:26;;;;;;;0.00;0.00;;;19.30;99.90;;;;;;5005339;28;20948;-74
2022/09/11 09:41:07;;;;;;;0.00;0.00;;;19.30;99.90;;;;;;5006394;28;21072;-74
2022/09/11 09:43:45;;;;;;;0.00;0.00;;;19.30;99.90;;;;;;5002327;28;20442;-73
2022/09/11 09:46:22;;;;;;;0.00;0.00;;;19.20;99.90;;;;;;5001757;28;20550;-73
2022/09/11 09:48:50;;;;;;;0.00;0.00;;;19.30;99.90;;;;;;5011134;28;20480;-73
2022/09/11 09:51:18;;;;;;;0.00;0.00;;;19.40;99.90;;;;;;5003582;28;20484;-72
2022/09/11 09:53:50;;;;;;;0.00;0.00;;;19.50;99.90;;;;;;5014404;28;20516;-72
2022/09/11 09:56:19;;;;;;;0.00;0.00;;;19.60;99.90;;;;;;5000301;28;21198;-76
2022/09/11 09:58:55;;;;;;;0.00;0.00;;;19.70;99.90;;;;;;5012261;28;20481;-73
2022/09/11 10:01:54;;;;;;;0.00;0.00;;;19.80;99.90;;;;;;5008374;28;20510;-73
2022/09/11 10:04:24;;;;;;;0.00;0.00;;;20.00;99.90;;;;;;4965675;28;20454;-73
2022/09/11 10:06:54;;;;;;;0.00;0.00;;;20.10;99.90;;;;;;5004732;28;20441;-73
2022/09/11 10:09:25;;;;;;;0.00;0.00;;;20.10;99.90;;;;;;5019594;28;20994;-73
2022/09/11 10:12:00;;;;;;;0.00;0.00;;;20.10;99.90;;;;;;5018804;28;20634;-73
2022/09/11 10:14:31;;;;;;;0.00;0.00;;;20.10;99.90;;;;;;5010804;28;20747;-73
2022/09/11 10:17:31;;;;;;;0.00;0.00;;;20.10;99.90;;;;;;4999266;28;20619;-73
2022/09/11 10:20:20;;;;;;;0.00;0.00;;;20.20;99.90;;;;;;5004335;28;20469;-73
2022/09/11 10:22:49;;;;;;;0.00;0.00;;;20.30;99.90;;;;;;5013802;28;21123;-72
2022/09/11 10:25:20;;;;;;;0.00;0.00;;;20.30;99.90;;;;;;5014882;28;20530;-72
2022/09/11 10:27:58;;;;;;;0.00;0.00;;;20.10;99.90;;;;;;5006379;28;20434;-72
2022/09/11 10:30:30;;;;;;;0.00;0.00;;;20.00;99.90;;;;;;5007092;28;20469;-73
2022/09/11 10:33:02;;;;;;;0.00;0.00;;;19.90;99.90;;;;;;5016079;28;20453;-76
2022/09/11 10:35:32;;;;;;;0.00;0.00;;;19.90;99.90;;;;;;5028245;28;20484;-77
2022/09/11 10:38:12;;;;;;;0.00;0.00;;;19.90;99.90;;;;;;5030143;28;20612;-79
2022/09/11 10:40:44;;;;;;;0.00;0.00;;;20.00;99.90;;;;;;5020705;28;20976;-76
2022/09/11 10:43:23;;;;;;;0.00;0.00;;;20.10;99.90;;;;;;5027678;28;20471;-76
2022/09/11 10:46:05;;;;;;;0.00;0.00;;;20.30;99.90;;;;;;5029965;28;20468;-76
2022/09/11 10:48:41;;;;;;;0.00;0.00;;;20.40;99.90;;;;;;5032246;28;20508;-76
2022/09/11 10:51:12;;;;;;;0.00;0.00;;;20.40;99.90;;;;;;5029510;28;20443;-77
2022/09/11 10:53:53;;;;;;;0.00;0.00;;;20.20;99.90;;;;;;5021647;28;20450;-78
2022/09/11 10:56:23;;;;;;;0.00;0.00;;;20.10;99.90;;;;;;5016691;28;20476;-78
2022/09/11 10:58:57;;;;;;;0.00;0.00;;;20.00;99.90;;;;;;5017070;28;20499;-79
2022/09/11 11:01:25;;;;;;;0.00;0.00;;;20.10;99.90;;;;;;5023751;28;20514;-79
2022/09/11 11:03:55;;;;;;;0.00;0.00;;;20.10;99.90;;;;;;5021213;28;21056;-75
2022/09/11 11:06:38;;;;;;;0.00;0.00;;;20.20;99.90;;;;;;5012604;28;20456;-79
2022/09/11 11:09:36;;;;;;;0.00;0.00;;;20.40;99.90;;;;;;5015592;28;21249;-76
2022/09/11 11:12:22;;;;;;;0.00;0.00;;;20.60;99.90;;;;;;4991669;28;20938;-75
2022/09/11 11:15:03;;;;;;;0.00;0.00;;;20.90;99.90;;;;;;5002372;28;20516;-75
2022/09/11 11:17:40;;;;;;;0.00;0.00;;;21.20;99.90;;;;;;5022530;28;20483;-79
2022/09/11 11:20:30;;;;;;;0.00;0.00;;;21.30;99.90;;;;;;5020968;28;20469;-79
2022/09/11 11:23:25;;;;;;;0.00;0.00;;;21.40;99.90;;;;;;5015800;28;20466;-80
2022/09/11 11:26:22;;;;;;;0.00;0.00;;;21.60;99.90;;;;;;5006574;28;20818;-80
2022/09/11 11:29:06;;;;;;;0.00;0.00;;;21.60;99.90;;;;;;5012736;28;20681;-80
2022/09/11 11:31:43;;;;;;;0.00;0.00;;;21.60;99.90;;;;;;5002617;28;20819;-80
2022/09/11 11:34:24;;;;;;;0.00;0.00;;;21.50;99.90;;;;;;5001552;28;20462;-80
2022/09/11 11:37:00;;;;;;;0.00;0.00;;;21.50;99.90;;;;;;5005201;28;20489;-75
2022/09/11 11:39:35;;;;;;;0.00;0.00;;;21.50;99.90;;;;;;5009024;28;20502;-72
2022/09/11 11:42:10;;;;;;;0.00;0.00;;;21.50;99.90;;;;;;5012145;28;20440;-71
2022/09/11 11:44:45;;;;;;;0.00;0.00;;;21.50;99.90;;;;;;5005042;28;20448;-71
2022/09/11 11:47:16;;;;;;;0.00;0.00;;;21.40;99.90;;;;;;5019161;28;20741;-71
2022/09/11 11:49:54;;;;;;;0.00;0.00;;;21.40;99.90;;;;;;5014884;28;20779;-71
2022/09/11 11:52:35;;;;;;;0.00;0.00;;;21.40;99.90;;;;;;5005134;28;20477;-72
2022/09/11 11:55:15;;;;;;;0.00;0.00;;;21.30;99.90;;;;;;5006376;28;20520;-72
2022/09/11 11:57:48;;;;;;;0.00;0.00;;;21.30;99.90;;;;;;5005231;28;20832;-73
2022/09/11 12:00:18;;;;;;;0.00;0.00;;;21.20;99.90;;;;;;5004203;28;20536;-72
2022/09/11 12:02:52;;;;;;;0.00;0.00;;;21.10;99.90;;;;;;5004373;28;20449;-72
2022/09/11 12:05:23;;;;;;;0.00;0.00;;;21.00;99.90;;;;;;5005491;28;20461;-78
2022/09/11 12:07:53;;;;;;;0.00;0.00;;;20.90;99.90;;;;;;5005968;28;20442;-77
2022/09/11 12:10:30;;;;;;;0.00;0.00;;;20.90;99.90;;;;;;5000617;28;20478;-71
2022/09/11 12:13:01;;;;;;;0.00;0.00;;;20.90;99.90;;;;;;5006049;28;20465;-73
2022/09/11 12:15:33;;;;;;;0.00;0.00;;;20.90;99.90;;;;;;5010321;28;20441;-76
2022/09/11 12:18:03;;;;;;;0.00;0.00;;;21.10;99.90;;;;;;5005687;28;20485;-72
2022/09/11 12:20:36;;;;;;;0.00;0.00;;;21.20;99.90;;;;;;5010856;28;20482;-71
2022/09/11 12:23:27;;;;;;;0.00;0.00;;;21.50;99.90;;;;;;5001883;28;20464;-71
2022/09/11 12:26:16;;;;;;;0.00;0.00;;;21.80;99.90;;;;;;5017561;28;20963;-71
2022/09/11 12:28:45;;;;;;;0.00;0.00;;;22.00;99.90;;;;;;5001511;28;20529;-72
2022/09/11 12:31:13;;;;;;;0.00;0.00;;;22.20;99.90;;;;;;5002875;28;20447;-72
2022/09/11 12:33:55;;;;;;;0.00;0.00;;;22.30;99.90;;;;;;5013807;28;20447;-74
2022/09/11 12:36:47;;;;;;;0.00;0.00;;;22.40;99.90;;;;;;5008336;28;20459;-71
2022/09/11 12:39:24;;;;;;;0.00;0.00;;;22.40;99.90;;;;;;5001416;28;20488;-71
2022/09/11 12:42:13;;;;;;;0.00;0.00;;;22.40;99.90;;;;;;5015918;28;20460;-71
2022/09/11 12:47:38;;;;;;;0.00;0.00;;;22.50;99.90;;;;;;5136217;27;20642;-73
2022/09/11 12:50:17;;;;;;;0.00;0.00;;;22.40;99.90;;;;;;5117135;27;21128;-71
2022/09/11 12:52:51;;;;;;;0.00;0.00;;;22.40;99.90;;;;;;5130541;27;21109;-72
2022/09/11 12:55:32;;;;;;;0.00;0.00;;;22.30;99.90;;;;;;5126050;27;20472;-73
2022/09/11 12:58:02;;;;;;;0.00;0.00;;;22.30;99.90;;;;;;5117309;28;20446;-72
2022/09/11 13:00:40;;;;;;;0.00;0.00;;;22.20;99.90;;;;;;5117128;28;21232;-71
2022/09/11 13:03:18;;;;;;;0.00;0.00;;;22.10;99.90;;;;;;5127631;27;20465;-71
2022/09/11 13:05:54;;;;;;;0.00;0.00;;;22.10;99.90;;;;;;5117520;27;20485;-72
2022/09/11 13:08:26;;;;;;;0.00;0.00;;;22.00;99.90;;;;;;5118236;27;20459;-72
2022/09/11 13:11:15;;;;;;;0.00;0.00;;;21.90;99.90;;;;;;5119388;27;20469;-72
2022/09/11 13:13:45;;;;;;;0.00;0.00;;;21.80;99.90;;;;;;5125732;27;20446;-72
2022/09/11 13:16:24;;;;;;;0.00;0.00;;;21.80;99.90;;;;;;5120316;27;20750;-75
2022/09/11 13:18:58;;;;;;;0.00;0.00;;;21.70;99.90;;;;;;5128037;27;20745;-75
2022/09/11 13:21:26;;;;;;;0.00;0.00;;;21.70;99.90;;;;;;5133670;27;20449;-77